• 1
  • 2
  • 1

WebCam

  
Kamera Halle
Kamera Vorfeld
Wetter EDDS

METAR

EDDS 160020Z VRB01KT CAVOK 14/12 Q1022 =
EDDS 152300Z 1600/1624 VRB02KT CAVOK BECMG 1609/1611 32006KT BECMG 1618/1620 VRB03KT


TAF

EDDS 152300Z 1600/1624 VRB02KT CAVOK BECMG 1609/1611 32006KT BECMG 1618/1620 VRB03KT =


SR/SS

04:59 / 17:33 UTC
(EDSO 16-09-2019)